• Join FlightAware (Why Join?)
  • Login
  • US Flag 
02:35AM EDT


 

Airport Tracker/Info


-or-


 

Live Flight TrackerFlight Track Log ✈ EJA929 ✈ 26-Feb-2014 ✈ KDEN - KSFO

Flight Track Log - Related Links

Times and Time Zones

All times are in EST time to prevent confusion due to time zone crossing. See the EJA929 flight status page for this flight to view local times or setup timezone preferences in your user account.

Time Position Orientation Groundspeed Altitude Reporting Facility
EST Latitude Longitude Course Direction KTS MPH feet Rate Location/Type
11:14AM 39.8333 -104.8167 254° West 235 270 8,700  Level Denver TRACON
11:15AM 39.8333 -104.9000 270° West 264 304 11,200 1,980 Climbing Denver TRACON
11:16AM 39.8369 -105.0125 272° West 288 331 12,900 1,440 Climbing Denver Center
11:17AM 39.8078 -105.1428 254° West 348 400 14,300 1,560 Climbing Denver Center
11:18AM 39.7825 -105.2697 256° West 365 420 16,200 1,800 Climbing Denver Center
11:19AM 39.7031 -105.5860 254° West  Level FlightAware Approximate
11:19AM 39.7517 -105.4119 254° West 380 437 18,100  Level Denver Center
11:20AM 39.7239 -105.5422 255° West 374 430 20,500 2,100 Climbing Denver Center
11:21AM 39.6950 -105.6847 255° West 370 426 22,500 1,800 Climbing Denver Center
11:22AM 39.6814 -105.8247 263° West 388 447 24,300 1,740 Climbing Denver Center
11:23AM 39.6653 -105.9667 262° West 397 457 26,100 1,740 Climbing Denver Center
11:24AM 39.6483 -106.1106 261° West 403 464 27,900 1,560 Climbing Denver Center
11:25AM 39.6333 -106.2603 263° West 411 473 29,400 1,500 Climbing Denver Center
11:26AM 39.5967 -106.4083 252° West 430 495 31,000 1,980 Climbing Denver Center
11:27AM 39.5475 -106.5600 247° West 431 496 33,500 1,920 Climbing Denver Center
11:28AM 39.4969 -106.7167 247° West 425 489 35,000 1,200 Climbing Denver Center
11:29AM 39.4519 -106.8564 247° West 434 499 36,000 480 Climbing Denver Center
11:30AM 39.4136 -107.0303 254° West 448 516 36,000  Level Denver Center
11:31AM 39.3858 -107.1722 256° West 467 537 36,000  Level Denver Center
11:32AM 39.3469 -107.3714 256° West 469 540 36,100 780 Climbing Denver Center
11:33AM 39.3322 -107.5261 263° West 458 527 37,700 900 Climbing Denver Center
11:34AM 39.3167 -107.7056 264° West 450 518 38,000 120 Climbing Denver Center
11:35AM 39.3031 -107.8636 264° West 461 531 38,000  Level Denver Center
11:36AM 39.2867 -108.0497 264° West 465 535 38,000  Level Denver Center
11:37AM 39.2714 -108.2100 263° West 467 537 38,000  Level Denver Center
11:38AM 39.2572 -108.3703 264° West 468 539 38,000  Level Denver Center
11:39AM 39.2400 -108.5572 263° West 467 537 38,000  Level Denver Center
11:40AM 39.2253 -108.7175 263° West 467 537 38,000  Level Denver Center
11:41AM 39.2072 -108.9056 263° West 469 540 38,000  Level Denver Center
11:43AM 39.1919 -109.0653 263° West 467 537 38,000  Level Denver Center
11:44AM 39.1742 -109.2506 263° West 464 534 38,000  Level Denver Center
11:45AM 39.1581 -109.4103 263° West 468 539 38,000  Level Denver Center
11:45AM 39.1469 -109.5161 262° West 468 539 38,000  Level Salt Lake Center
11:46AM 39.1314 -109.6747 263° West 467 537 38,000  Level Salt Lake Center
11:47AM 39.1111 -109.8594 262° West 466 536 38,000  Level Salt Lake Center
11:48AM 39.0958 -110.0192 263° West 468 539 38,000  Level Salt Lake Center
11:49AM 39.0778 -110.1769 262° West 465 535 38,000  Level Salt Lake Center
11:50AM 39.0583 -110.3622 262° West 468 539 38,000  Level Salt Lake Center
11:51AM 39.0408 -110.5222 262° West 470 541 38,000  Level Salt Lake Center
11:52AM 39.0200 -110.7064 262° West 468 539 38,000  Level Salt Lake Center
11:53AM 39.0028 -110.8650 262° West 468 539 38,000  Level Salt Lake Center
11:54AM 38.9811 -111.0517 262° West 471 542 38,000  Level Salt Lake Center
11:55AM 38.9603 -111.2242 261° West 471 542 38,000  Level Salt Lake Center
11:57AM 38.9428 -111.3919 262° West 474 545 38,000  Level Salt Lake Center
11:58AM 38.9228 -111.5589 261° West 474 545 38,000  Level Salt Lake Center
11:59AM 38.9022 -111.7261 261° West 476 548 38,000  Level Salt Lake Center
12:00PM 38.8817 -111.8931 261° West 476 548 38,000  Level Salt Lake Center
12:01PM 38.8606 -112.0614 261° West 478 550 38,000  Level Salt Lake Center
12:02PM 38.8364 -112.2614 261° West 477 549 38,000  Level Salt Lake Center
12:03PM 38.8144 -112.4278 260° West 476 548 38,000  Level Salt Lake Center
12:04PM 38.7928 -112.5950 261° West 478 550 38,000  Level Salt Lake Center
12:05PM 38.7711 -112.7600 260° West 474 545 38,000  Level Salt Lake Center
12:06PM 38.7492 -112.9281 261° West 478 550 38,000  Level Salt Lake Center
12:07PM 38.7267 -113.0950 260° West 479 551 38,000  Level Salt Lake Center
12:08PM 38.7006 -113.2889 260° West 472 543 38,000  Level Salt Lake Center
12:09PM 38.6781 -113.4522 260° West 470 541 38,000  Level Salt Lake Center
12:10PM 38.6556 -113.6169 260° West 472 543 38,000  Level Salt Lake Center
12:11PM 38.6331 -113.7794 260° West 470 541 38,000  Level Salt Lake Center
12:12PM 38.6094 -113.9436 260° West 471 542 38,000  Level Salt Lake Center
12:13PM 38.5869 -114.1075 260° West 472 543 38,000  Level Salt Lake Center
12:14PM 38.5589 -114.3033 260° West 471 542 38,000  Level Salt Lake Center
12:15PM 38.5344 -114.4686 259° West 474 545 38,000  Level Salt Lake Center
12:16PM 38.5100 -114.6308 259° West 469 540 38,000  Level Salt Lake Center
12:17PM 38.4869 -114.7950 260° West 471 542 38,000  Level Salt Lake Center
12:18PM 38.4614 -114.9586 259° West 471 542 38,000  Level Salt Lake Center
12:19PM 38.4375 -115.1219 259° West 471 542 38,100 660 Climbing Salt Lake Center
12:20PM 38.4069 -115.3144 259° West 465 535 39,400 900 Climbing Salt Lake Center
12:21PM 38.3858 -115.4508 259° West 452 520 40,000 240 Climbing Salt Lake Center
12:22PM 38.3617 -115.6092 259° West 454 522 40,000  Level Salt Lake Center
12:23PM 38.3322 -115.8017 259° West 461 531 40,000  Level Salt Lake Center
12:24PM 38.3061 -115.9631 258° West 465 535 40,000  Level Salt Lake Center
12:25PM 38.2803 -116.1244 259° West 465 535 40,000  Level Salt Lake Center
12:26PM 38.2539 -116.2875 258° West 470 541 40,000  Level Salt Lake Center
12:27PM 38.2397 -116.3842 259° West 468 539 40,000  Level Oakland Center
12:28PM 38.2186 -116.5808 262° West 469 540 40,000  Level Oakland Center
12:29PM 38.1997 -116.7433 262° West 466 536 40,000  Level Oakland Center
12:30PM 38.1800 -116.9061 261° West 465 535 40,000  Level Oakland Center
12:31PM 38.1611 -117.0689 262° West 466 536 40,000  Level Oakland Center
12:32PM 38.1408 -117.2372 261° West 464 534 40,000  Level Oakland Center
12:33PM 38.1214 -117.4003 261° West 465 535 40,000  Level Oakland Center
12:34PM 38.1006 -117.5697 261° West 459 528 40,000  Level Oakland Center
12:35PM 38.0806 -117.7289 261° West 458 527 40,000 -60 Level Oakland Center
12:36PM 38.0606 -117.8853 261° West 452 520 39,900 -600 Descending Oakland Center
12:37PM 38.0406 -118.0439 261° West 455 524 38,900 -960 Descending Oakland Center
12:38PM 38.0211 -118.1894 260° West 427 491 38,000 -960 Descending Oakland Center
12:39PM 38.0042 -118.3217 261° West 383 441 37,000 -960 Descending Oakland Center
12:40PM 37.9853 -118.4547 260° West 383 441 36,100 -960 Descending Oakland Center
12:41PM 37.9675 -118.5947 261° West 396 456 35,100 -1,020 Descending Oakland Center
12:42PM 37.9483 -118.7361 260° West 405 466 34,100 -600 Descending Oakland Center
12:43PM 37.9272 -118.9000 261° West 395 455 34,000 -60 Descending Oakland Center
12:44PM 37.9081 -119.0372 260° West 396 456 34,000  Level Oakland Center
12:46PM 37.8889 -119.1739 260° West 404 465 34,000  Level Oakland Center
12:47PM 37.8706 -119.3103 260° West 396 456 34,000  Level Oakland Center
12:48PM 37.8503 -119.4522 260° West 405 466 34,000  Level Oakland Center
12:49PM 37.8303 -119.5931 260° West 408 470 34,000 -360 Level Oakland Center
12:50PM 37.8111 -119.7325 260° West 405 466 33,300 -1,080 Descending Oakland Center
12:51PM 37.7900 -119.8728 259° West 404 465 31,900 -1,380 Descending Oakland Center
12:52PM 37.7686 -120.0150 259° West 411 473 30,500 -1,440 Descending Oakland Center
12:53PM 37.7486 -120.1564 260° West 410 472 29,000 -1,620 Descending Oakland Center
12:54PM 37.7219 -120.3294 259° West 418 481 27,200 -1,560 Descending Oakland Center
12:55PM 37.7025 -120.4606 259° West 383 441 25,900 -1,800 Descending Oakland Center
12:56PM 37.6847 -120.5825 260° West 356 410 23,600 -2,100 Descending Oakland Center
12:57PM 37.6661 -120.7031 259° West 351 404 21,600 -1,860 Descending Oakland Center
12:58PM 37.6489 -120.8186 259° West 340 391 19,800 -1,380 Descending Oakland Center
12:59PM 37.6314 -120.9322 259° West 331 381 18,900 -1,140 Descending Oakland Center
01:00PM 37.6178 -121.0464 261° West 330 380 17,500 -1,320 Descending Oakland Center
01:01PM 37.6056 -121.1511 262° West 323 372 16,200 -1,560 Descending Oakland Center
01:02PM 37.5936 -121.2544 262° West 305 351 14,400 -1,860 Descending Oakland Center
01:03PM 37.6289 -121.3561 294° West 309 356 12,500 -1,860 Descending Oakland Center
01:04PM 37.6761 -121.4422 305° West 301 346 10,700 -1,320 Descending Oakland Center
01:05PM 37.7286 -121.5386 305° West 297 342 9,900 -720 Descending Oakland Center
01:06PM 37.7744 -121.6200 305° West 289 333 9,300 -540 Descending Oakland Center
01:07PM 37.8169 -121.6997 304° West 281 323 8,900 -240 Descending Oakland Center
01:08PM 37.8500 -121.7617 304° West 225 259 8,900  Level Oakland Center
01:09PM 37.8619 -121.8314 282° West 207 238 8,900  Level Oakland Center
01:10PM 37.8692 -121.9022 277° West 204 235 8,900 -480 Level Oakland Center
01:11PM 37.8778 -121.9722 279° West 203 234 8,000 -960 Descending Oakland Center
01:12PM 37.8878 -122.0558 279° West 201 231 7,000 -600 Descending Oakland Center
01:13PM 37.8942 -122.1239 277° West 198 228 6,800 -780 Descending Oakland Center
01:14PM 37.8825 -122.1914 258° West 196 226 5,500 -1,020 Descending Oakland Center
01:15PM 37.8500 -122.2333 226° Southwest 171 197 4,900 -900 Descending Northern Cal TRACON
01:16PM 37.8000 -122.2500 195° South 182 209 3,800 -1,020 Descending Northern Cal TRACON
01:17PM 37.7500 -122.2833 208° Southwest 170 196 2,900 -900 Descending Northern Cal TRACON
01:18PM 37.7167 -122.3167 218° Southwest 165 190 2,000 -900 Descending Northern Cal TRACON
01:19PM 37.6833 -122.3333 202° Southwest 146 168 1,200 -780 Descending Northern Cal TRACON
01:20PM 37.6500 -122.3500 202° Southwest 136 157 500 14,760 Descending Northern Cal TRACON
01:21PM 37.6075 -122.3814 210° Southwest 142 163 34,000 27,900 Climbing Oakland Center
01:23PM 37.6191 -122.3752 23° Northeast  Level Estimated
01:30PM 37.6191 -122.3752 156° South  Level Estimated